createdAt,value
2023-02-19T00:00:04.182Z,-0.06
2023-02-19T00:16:00.261Z,-0.06
2023-02-19T00:31:01.113Z,-0.11
2023-02-19T00:46:01.903Z,-0.11
2023-02-19T01:00:02.541Z,-0.11
2023-02-19T01:16:03.516Z,-0.17
2023-02-19T01:31:04.473Z,-0.28
2023-02-19T01:46:00.549Z,-0.33
2023-02-19T02:00:01.609Z,-0.44
2023-02-19T02:16:02.558Z,-0.56
2023-02-19T02:31:03.488Z,-0.61
2023-02-19T02:46:04.682Z,-0.67
2023-02-19T03:00:00.145Z,-0.72
2023-02-19T03:16:01.192Z,-0.78
2023-02-19T03:31:02.348Z,-0.89
2023-02-19T03:46:03.457Z,-1
2023-02-19T04:00:04.299Z,-1.11
2023-02-19T04:16:00.348Z,-1.22
2023-02-19T04:31:01.447Z,-1.28
2023-02-19T04:46:02.302Z,-1.39
2023-02-19T05:00:03.113Z,-1.44
2023-02-19T05:16:03.823Z,-1.5
2023-02-19T05:31:10.321Z,-1.56
2023-02-19T05:46:01.085Z,-1.5
2023-02-19T06:00:01.824Z,-1.5
2023-02-19T06:16:02.810Z,-1.5
2023-02-19T06:31:04.014Z,-1.44
2023-02-19T06:46:00.075Z,-1.33
2023-02-19T07:00:00.992Z,-1.22
2023-02-19T07:16:02.123Z,-0.83
2023-02-19T07:31:03.005Z,-0.56
2023-02-19T07:46:04.905Z,-0.22
2023-02-19T07:59:59.730Z,0.06
2023-02-19T08:16:16.050Z,0.22
2023-02-19T08:31:01.808Z,0.5
2023-02-19T08:46:02.854Z,0.78
2023-02-19T09:00:03.740Z,1
2023-02-19T09:15:59.811Z,1.28
2023-02-19T09:31:00.614Z,2.06
2023-02-19T09:46:01.561Z,3.17
2023-02-19T10:00:02.547Z,4.28
2023-02-19T10:16:03.731Z,5.39
2023-02-19T10:31:04.530Z,6.11
2023-02-19T10:46:00.840Z,6.5
2023-02-19T11:00:01.556Z,7.22
2023-02-19T11:16:02.556Z,7.94
2023-02-19T11:31:04.055Z,8.83
2023-02-19T11:45:59.771Z,9.72
2023-02-19T12:00:00.966Z,10.28
2023-02-19T12:16:01.786Z,10.72
2023-02-19T12:31:02.736Z,11.11
2023-02-19T12:46:03.924Z,11.5
2023-02-19T13:00:00.002Z,11.83
2023-02-19T13:16:00.914Z,12.17
2023-02-19T13:31:01.977Z,12.56
2023-02-19T13:46:03.128Z,12.89
2023-02-19T14:00:04.133Z,12.89
2023-02-19T14:16:00.104Z,13
2023-02-19T14:31:00.842Z,13.39
2023-02-19T14:46:01.632Z,13.83
2023-02-19T15:00:02.368Z,14
2023-02-19T15:16:03.409Z,14.06
2023-02-19T15:31:04.359Z,13.94
2023-02-19T15:46:00.193Z,13.5
2023-02-19T16:00:00.561Z,12.28
2023-02-19T16:16:01.457Z,11.33
2023-02-19T16:31:02.595Z,10.61
2023-02-19T16:46:03.704Z,9.67
2023-02-19T17:00:04.489Z,9.17
2023-02-19T17:16:00.627Z,8.61
2023-02-19T17:31:01.847Z,7.72
2023-02-19T17:46:02.993Z,6.78
2023-02-19T18:00:05.989Z,6.17
2023-02-19T18:15:59.629Z,5.67
2023-02-19T18:31:00.728Z,5.17
2023-02-19T18:46:01.671Z,4.67
2023-02-19T19:00:02.684Z,4.28
2023-02-19T19:16:03.788Z,3.94
2023-02-19T19:30:59.758Z,3.56
2023-02-19T19:46:00.764Z,3.33
2023-02-19T20:00:01.494Z,3.17
2023-02-19T20:16:02.624Z,2.89
2023-02-19T20:31:03.624Z,2.67
2023-02-19T20:46:04.523Z,2.39
2023-02-19T21:00:00.479Z,2.11
2023-02-19T21:16:01.483Z,1.78
2023-02-19T21:31:02.501Z,1.56
2023-02-19T21:46:03.148Z,1.33
2023-02-19T22:00:04.169Z,1.17
2023-02-19T22:16:00.231Z,1
2023-02-19T22:31:01.263Z,0.83
2023-02-19T22:46:02.279Z,0.72
2023-02-19T23:00:03.140Z,0.61
2023-02-19T23:16:04.160Z,0.44
2023-02-19T23:31:00.165Z,0.28
2023-02-19T23:46:00.750Z,0.17
